Time;durP1;ratioP1;P1;durP2;ratioP2;P2;SDS_P1;SDS_P2;PMS_P1;PMS_P2;Temp;Humidity;BMP_temperature;BMP_pressure;BME280_temperature;BME280_humidity;BME280_pressure;Samples;Min_cycle;Max_cycle;Signal;HPM_P1;HPM_P2
2024/04/15 00:01:48;;;;;;;1.25;0.80;;;;;;;22.60;37.56;100555.38;4869218;26;20008;-57
2024/04/15 00:03:58;;;;;;;0.70;0.60;;;;;;;22.59;37.69;100554.56;4864555;26;20039;-56
2024/04/15 00:06:09;;;;;;;1.48;0.50;;;;;;;22.60;37.66;100546.75;4868035;26;20007;-57
2024/04/15 00:08:21;;;;;;;0.75;0.50;;;;;;;22.59;37.13;100539.34;4868475;26;20706;-57
2024/04/15 00:10:31;;;;;;;0.63;0.55;;;;;;;22.59;37.53;100540.19;4865689;26;20019;-56
2024/04/15 00:12:41;;;;;;;1.83;0.80;;;;;;;22.59;37.50;100543.06;4869380;26;20008;-55
2024/04/15 00:14:52;;;;;;;0.98;0.50;;;;;;;22.59;37.33;100528.69;4869442;26;20908;-57
2024/04/15 00:17:03;;;;;;;1.02;0.55;;;;;;;22.59;37.03;100525.78;4866489;26;20007;-56
2024/04/15 00:19:13;;;;;;;1.23;0.60;;;;;;;22.59;37.04;100519.19;4867362;26;20028;-57
2024/04/15 00:21:24;;;;;;;1.42;0.70;;;;;;;22.59;36.87;100513.44;4866640;26;20011;-55
2024/04/15 00:23:34;;;;;;;1.20;0.60;;;;;;;22.58;36.66;100500.28;4867627;26;22574;-56
2024/04/15 00:25:44;;;;;;;1.40;0.60;;;;;;;22.58;36.70;100501.09;4865423;26;20040;-57
2024/04/15 00:27:55;;;;;;;1.02;0.60;;;;;;;22.57;36.50;100492.84;4865784;26;20012;-57
2024/04/15 00:30:06;;;;;;;1.25;0.65;;;;;;;22.58;36.64;100491.66;4865218;26;20016;-54
2024/04/15 00:32:16;;;;;;;3.13;0.70;;;;;;;22.57;36.66;100498.59;4864556;26;20021;-55
2024/04/15 00:34:27;;;;;;;0.63;0.60;;;;;;;22.56;36.79;100494.09;4866739;26;20021;-57
2024/04/15 00:36:37;;;;;;;0.70;0.50;;;;;;;22.55;36.60;100489.56;4866949;26;20003;-57
2024/04/15 00:38:48;;;;;;;1.38;0.70;;;;;;;22.55;36.95;100484.63;4866949;26;20022;-56
2024/04/15 00:40:58;;;;;;;1.45;0.70;;;;;;;22.55;36.82;100478.84;4863624;26;20067;-57
2024/04/15 00:43:09;;;;;;;1.25;0.70;;;;;;;22.55;36.68;100478.84;4866202;26;20047;-53
2024/04/15 00:45:30;;;;;;;1.02;0.73;;;;;;;22.57;36.77;100475.59;4867339;26;20012;-55
2024/04/15 00:47:41;;;;;;;1.17;0.60;;;;;;;22.54;36.69;100480.09;4864648;26;20023;-57
2024/04/15 00:49:51;;;;;;;1.23;0.70;;;;;;;22.55;36.47;100460.78;4866700;26;20018;-56
2024/04/15 00:52:03;;;;;;;1.67;0.70;;;;;;;22.55;36.68;100460.78;4867345;26;20007;-53
2024/04/15 00:54:14;;;;;;;1.85;0.80;;;;;;;22.55;36.82;100449.28;4865359;26;20022;-56
2024/04/15 00:56:25;;;;;;;1.35;0.75;;;;;;;22.54;36.78;100441.84;4866857;26;20015;-57
2024/04/15 00:58:36;;;;;;;1.77;0.90;;;;;;;22.54;36.98;100436.94;4862511;26;20023;-55
2024/04/15 01:00:47;;;;;;;1.15;0.82;;;;;;;22.54;36.71;100441.84;4868165;26;20059;-55
2024/04/15 01:02:57;;;;;;;0.80;0.55;;;;;;;22.53;36.99;100431.56;4869268;26;20004;-57
2024/04/15 01:05:09;;;;;;;1.40;0.70;;;;;;;22.52;37.02;100433.59;4866226;26;20008;-56
2024/04/15 01:07:21;;;;;;;0.60;0.60;;;;;;;22.53;36.78;100428.69;4862676;26;20008;-57
2024/04/15 01:09:31;;;;;;;0.70;0.70;;;;;;;22.53;36.94;100428.69;4866164;26;20019;-57
2024/04/15 01:11:41;;;;;;;0.98;0.60;;;;;;;22.52;37.00;100432.75;4865923;26;20019;-57
2024/04/15 01:13:52;;;;;;;1.67;0.80;;;;;;;22.53;36.83;100428.69;4865752;26;20469;-56
2024/04/15 01:16:03;;;;;;;1.25;0.60;;;;;;;22.52;36.92;100421.25;4862854;26;20008;-56
2024/04/15 01:18:13;;;;;;;1.38;0.80;;;;;;;22.50;36.71;100412.97;4863501;26;20086;-57
2024/04/15 01:20:24;;;;;;;1.05;0.52;;;;;;;22.52;36.75;100415.50;4867990;26;20089;-56
2024/04/15 01:22:38;;;;;;;1.80;0.70;;;;;;;22.51;36.70;100413.81;4863441;26;20019;-57
2024/04/15 01:24:49;;;;;;;1.38;0.70;;;;;;;22.52;36.91;100418.38;4866381;26;20083;-54
2024/04/15 01:26:59;;;;;;;1.45;0.80;;;;;;;22.50;36.88;100415.06;4864780;26;20033;-55
2024/04/15 01:29:10;;;;;;;0.80;0.70;;;;;;;22.51;36.84;100405.19;4866080;26;20407;-57
2024/04/15 01:31:21;;;;;;;1.23;0.70;;;;;;;22.50;36.80;100398.59;4866197;26;23233;-56
2024/04/15 01:33:31;;;;;;;0.82;0.70;;;;;;;22.50;36.81;100401.47;4868324;26;20069;-54
2024/04/15 01:35:41;;;;;;;2.25;0.90;;;;;;;22.50;36.87;100395.72;4865392;26;20012;-57
2024/04/15 01:37:53;;;;;;;1.33;0.70;;;;;;;22.50;36.91;100395.72;4864464;26;20052;-58
2024/04/15 01:40:03;;;;;;;0.70;0.60;;;;;;;22.49;36.88;100387.47;4864217;26;20003;-58
2024/04/15 01:42:13;;;;;;;1.42;0.80;;;;;;;22.49;37.32;100382.56;4869263;26;20007;-57
2024/04/15 01:44:24;;;;;;;0.75;0.60;;;;;;;22.49;37.08;100373.09;4865171;26;24188;-57
2024/04/15 01:46:35;;;;;;;1.05;0.80;;;;;;;22.49;37.19;100358.72;4866795;26;20455;-58
2024/04/15 01:48:45;;;;;;;0.85;0.60;;;;;;;22.49;37.26;100350.09;4865885;26;20439;-55
2024/04/15 01:50:55;;;;;;;0.95;0.60;;;;;;;22.49;37.16;100347.22;4866130;26;20452;-55
2024/04/15 01:53:11;;;;;;;0.63;0.60;;;;;;;22.49;37.27;100344.34;4866506;26;20456;-57
2024/04/15 01:55:21;;;;;;;1.45;0.70;;;;;;;22.48;37.15;100346.41;4869139;26;20011;-57
2024/04/15 01:57:33;;;;;;;0.85;0.70;;;;;;;22.47;36.96;100341.84;4867688;26;20058;-57
2024/04/15 01:59:43;;;;;;;1.10;0.77;;;;;;;22.48;37.04;100345.56;4868727;26;20054;-56
2024/04/15 02:01:53;;;;;;;0.93;0.50;;;;;;;22.47;37.08;100343.91;4867263;26;20004;-54
2024/04/15 02:04:04;;;;;;;2.08;0.80;;;;;;;22.48;36.96;100339.81;4866370;26;20034;-57
2024/04/15 02:06:14;;;;;;;1.17;0.77;;;;;;;22.47;36.74;100338.16;4870628;26;20008;-57
2024/04/15 02:08:25;;;;;;;1.30;0.70;;;;;;;22.46;36.72;100334.44;4868958;26;20026;-58
2024/04/15 02:10:35;;;;;;;1.40;0.70;;;;;;;22.46;36.63;100331.56;4867977;26;20008;-57
2024/04/15 02:12:46;;;;;;;0.93;0.65;;;;;;;22.46;36.58;100328.69;4865395;26;20089;-58
2024/04/15 02:14:57;;;;;;;1.13;0.68;;;;;;;22.45;36.73;100321.31;4869801;26;21075;-57
2024/04/15 02:17:07;;;;;;;0.77;0.50;;;;;;;22.44;36.58;100310.19;4866097;26;20022;-57
2024/04/15 02:19:18;;;;;;;0.90;0.52;;;;;;;22.45;36.82;100294.56;4868920;26;20019;-57
2024/04/15 02:21:28;;;;;;;1.33;0.60;;;;;;;22.45;36.86;100286.78;4870055;26;20012;-57
2024/04/15 02:23:38;;;;;;;0.90;0.60;;;;;;;22.44;37.06;100290.06;4870203;26;20011;-57
2024/04/15 02:25:49;;;;;;;0.98;0.60;;;;;;;22.44;36.97;100290.84;4866482;26;20082;-56
2024/04/15 02:27:59;;;;;;;1.13;0.60;;;;;;;22.44;37.05;100290.84;4867720;26;20008;-57
2024/04/15 02:30:10;;;;;;;1.13;0.70;;;;;;;22.44;36.80;100281.44;4867364;26;26305;-56
2024/04/15 02:32:20;;;;;;;1.00;0.70;;;;;;;22.44;36.84;100281.44;4867840;26;20549;-57
2024/04/15 02:34:31;;;;;;;1.17;0.70;;;;;;;22.43;36.76;100274.00;4867872;26;20043;-56
2024/04/15 02:36:41;;;;;;;1.15;0.57;;;;;;;22.43;37.00;100280.59;4869235;26;20368;-57
2024/04/15 02:38:52;;;;;;;0.80;0.60;;;;;;;22.44;37.04;100272.78;4868347;26;25999;-55
2024/04/15 02:41:02;;;;;;;1.48;0.70;;;;;;;22.43;37.03;100265.38;4867944;26;20020;-57
2024/04/15 02:43:12;;;;;;;0.52;0.50;;;;;;;22.43;37.06;100262.50;4869278;26;20008;-58
2024/04/15 02:45:23;;;;;;;1.00;0.70;;;;;;;22.42;36.80;100260.84;4865275;26;26376;-58
2024/04/15 02:47:33;;;;;;;0.63;0.57;;;;;;;22.42;36.91;100269.47;4867782;26;20475;-57
2024/04/15 02:49:44;;;;;;;0.60;0.60;;;;;;;22.42;36.81;100266.59;4868158;26;20494;-57
2024/04/15 02:51:54;;;;;;;1.00;0.60;;;;;;;22.42;36.51;100260.84;4868076;26;20023;-56
2024/04/15 02:54:05;;;;;;;0.60;0.60;;;;;;;22.41;36.81;100265.75;4868592;26;20022;-57
2024/04/15 02:56:15;;;;;;;1.05;0.70;;;;;;;22.41;36.70;100264.91;4866540;26;21223;-57
2024/04/15 02:58:25;;;;;;;0.90;0.60;;;;;;;22.42;36.74;100260.84;4884430;26;20007;-58
2024/04/15 03:00:36;;;;;;;0.75;0.70;;;;;;;22.42;36.63;100266.59;4866251;26;20014;-57
2024/04/15 03:02:46;;;;;;;1.63;0.77;;;;;;;22.41;36.79;100264.91;4866301;26;20022;-56
2024/04/15 03:04:57;;;;;;;1.58;0.77;;;;;;;22.41;36.77;100260.00;4866680;26;22552;-56
2024/04/15 03:07:07;;;;;;;1.60;0.70;;;;;;;22.41;36.90;100264.91;4866412;26;20008;-57
2024/04/15 03:09:20;;;;;;;1.90;0.70;;;;;;;22.40;36.90;100263.28;4869168;26;20018;-56
2024/04/15 03:11:31;;;;;;;1.48;0.80;;;;;;;22.40;37.21;100263.28;4868117;26;20012;-58
2024/04/15 03:13:41;;;;;;;1.25;0.65;;;;;;;22.40;36.75;100264.09;4870079;26;20467;-57
2024/04/15 03:15:55;;;;;;;1.25;0.90;;;;;;;22.40;37.27;100258.34;4867904;26;20089;-58
2024/04/15 03:18:05;;;;;;;1.20;0.65;;;;;;;22.39;37.12;100250.13;4866457;26;20066;-54
2024/04/15 03:20:16;;;;;;;0.75;0.55;;;;;;;22.40;37.10;100246.00;4868965;26;20018;-54
2024/04/15 03:22:26;;;;;;;1.25;0.70;;;;;;;22.40;37.24;100246.00;4869205;26;20101;-58
2024/04/15 03:24:37;;;;;;;1.35;0.70;;;;;;;22.39;37.02;100238.63;4865461;26;20471;-58
2024/04/15 03:26:47;;;;;;;0.75;0.70;;;;;;;22.39;37.36;100238.63;4868142;26;20353;-57
2024/04/15 03:28:58;;;;;;;0.90;0.70;;;;;;;22.39;37.34;100227.13;4867072;26;20018;-57
2024/04/15 03:31:08;;;;;;;1.10;0.80;;;;;;;22.38;37.12;100232.03;4869473;26;20020;-57
2024/04/15 03:33:18;;;;;;;1.17;0.60;;;;;;;22.38;37.05;100226.28;4871920;26;20003;-58
2024/04/15 03:35:29;;;;;;;1.38;0.70;;;;;;;22.38;37.06;100228.31;4866285;26;20035;-56
2024/04/15 03:37:40;;;;;;;0.98;0.63;;;;;;;22.36;37.10;100210.66;4869557;26;20451;-57
2024/04/15 03:39:50;;;;;;;1.17;0.70;;;;;;;22.38;37.28;100211.06;4868491;26;20004;-57
2024/04/15 03:42:01;;;;;;;0.75;0.75;;;;;;;22.37;36.73;100213.13;4866605;26;20460;-56
2024/04/15 03:44:11;;;;;;;0.90;0.80;;;;;;;22.37;36.84;100215.16;4866133;26;20080;-56
2024/04/15 03:46:21;;;;;;;1.00;0.70;;;;;;;22.37;36.65;100207.38;4867962;26;20003;-57
2024/04/15 03:48:32;;;;;;;1.02;0.70;;;;;;;22.37;36.64;100207.38;4868675;26;20484;-57
2024/04/15 03:50:42;;;;;;;0.80;0.77;;;;;;;22.37;36.79;100200.78;4870102;26;21077;-58
2024/04/15 03:52:54;;;;;;;0.77;0.77;;;;;;;22.37;36.70;100200.78;4871469;26;20008;-57
2024/04/15 03:55:04;;;;;;;0.88;0.70;;;;;;;22.35;36.57;100198.31;4867836;26;20097;-57
2024/04/15 03:57:15;;;;;;;1.02;0.70;;;;;;;22.36;36.72;100193.38;4868814;26;20142;-57
2024/04/15 03:59:25;;;;;;;1.73;0.90;;;;;;;22.35;36.80;100197.47;4869450;26;20019;-57
2024/04/15 04:01:36;;;;;;;1.92;0.80;;;;;;;22.36;36.64;100196.25;4867625;26;20480;-58
2024/04/15 04:03:46;;;;;;;1.10;0.88;;;;;;;22.36;36.60;100199.13;4865300;26;20023;-55
2024/04/15 04:05:56;;;;;;;0.93;0.70;;;;;;;22.35;36.50;100197.47;4869615;26;20337;-58
2024/04/15 04:08:07;;;;;;;1.48;0.80;;;;;;;22.34;36.57;100178.56;4868809;26;20018;-58
2024/04/15 04:10:17;;;;;;;0.93;0.80;;;;;;;22.35;36.58;100185.97;4867376;26;20662;-56
2024/04/15 04:12:28;;;;;;;1.05;0.90;;;;;;;22.34;36.74;100182.28;4865033;26;20588;-57
2024/04/15 04:14:38;;;;;;;0.80;0.80;;;;;;;22.34;36.65;100184.31;4865918;26;20031;-57
2024/04/15 04:16:49;;;;;;;1.63;1.00;;;;;;;22.34;36.69;100172.81;4866544;26;20085;-57
2024/04/15 04:19:02;;;;;;;1.25;0.90;;;;;;;22.33;36.63;100183.47;4864299;26;20016;-57
2024/04/15 04:21:13;;;;;;;1.33;1.00;;;;;;;22.32;36.73;100163.75;4868917;26;20019;-57
2024/04/15 04:23:23;;;;;;;1.58;1.20;;;;;;;22.33;36.48;100165.38;4865358;26;20019;-58
2024/04/15 04:25:34;;;;;;;1.10;1.00;;;;;;;22.33;36.48;100166.22;4867838;26;20026;-57
2024/04/15 04:27:45;;;;;;;1.65;1.10;;;;;;;22.33;36.32;100168.25;4870514;26;20018;-56
2024/04/15 04:29:56;;;;;;;1.25;1.08;;;;;;;22.33;36.61;100171.97;4865158;26;20051;-58
2024/04/15 04:32:06;;;;;;;1.80;1.00;;;;;;;22.32;36.44;100178.13;4866592;26;20008;-57
2024/04/15 04:34:17;;;;;;;1.40;1.13;;;;;;;22.32;36.46;100170.31;4865453;26;20011;-56
2024/04/15 04:36:28;;;;;;;2.20;1.25;;;;;;;22.32;36.43;100175.25;4866157;26;24604;-58
2024/04/15 04:38:38;;;;;;;1.42;1.10;;;;;;;22.31;36.41;100167.84;4871108;26;20011;-57
2024/04/15 04:40:57;;;;;;;1.73;1.13;;;;;;;22.31;36.42;100173.59;4866074;26;20055;-57
2024/04/15 04:43:07;;;;;;;1.38;1.20;;;;;;;22.31;36.35;100156.34;4883113;26;20145;-57
2024/04/15 04:45:18;;;;;;;1.33;1.10;;;;;;;22.30;36.25;100160.41;4867460;26;21993;-57
2024/04/15 04:47:28;;;;;;;1.10;1.00;;;;;;;22.31;36.20;100162.09;4868143;26;20014;-58
2024/04/15 04:49:38;;;;;;;1.45;1.20;;;;;;;22.30;36.29;100163.28;4880657;26;20751;-58
2024/04/15 04:51:49;;;;;;;1.40;1.05;;;;;;;22.29;36.28;100165.38;4866720;26;20460;-58
2024/04/15 04:53:59;;;;;;;2.25;1.10;;;;;;;22.29;36.21;100159.59;4866065;26;20043;-56
2024/04/15 04:56:14;;;;;;;1.65;1.35;;;;;;;22.29;36.63;100159.59;4865350;26;20474;-57
2024/04/15 04:58:24;;;;;;;2.45;1.30;;;;;;;22.29;36.38;100156.72;4868947;26;21605;-58
2024/04/15 05:00:34;;;;;;;2.05;1.15;;;;;;;22.28;36.39;100146.44;4866966;26;20012;-57
2024/04/15 05:02:46;;;;;;;1.63;1.20;;;;;;;22.29;36.37;100150.16;4868526;26;20047;-57
2024/04/15 05:04:57;;;;;;;1.30;1.10;;;;;;;22.28;36.79;100143.56;4865875;26;20040;-57
2024/04/15 05:07:07;;;;;;;1.70;1.20;;;;;;;22.29;36.49;100147.28;4867734;26;20008;-57
2024/04/15 05:09:18;;;;;;;1.63;1.25;;;;;;;22.29;36.66;100147.28;4866075;26;20534;-58
2024/04/15 05:11:28;;;;;;;2.45;1.50;;;;;;;22.28;36.62;100145.63;4865507;26;20011;-58
2024/04/15 05:13:39;;;;;;;1.98;1.17;;;;;;;22.28;36.62;100139.88;4869135;26;20415;-57
2024/04/15 05:15:50;;;;;;;1.10;1.00;;;;;;;22.27;36.76;100136.16;4866921;26;20039;-58
2024/04/15 05:18:00;;;;;;;1.42;1.10;;;;;;;22.27;36.66;100139.03;4865185;26;21139;-57
2024/04/15 05:20:11;;;;;;;1.70;1.15;;;;;;;22.27;36.39;100141.06;4863504;26;20084;-58
2024/04/15 05:22:21;;;;;;;1.30;1.20;;;;;;;22.28;36.65;100139.88;4866146;26;20004;-57
2024/04/15 05:24:32;;;;;;;1.30;1.20;;;;;;;22.27;36.69;100135.31;4868269;26;20034;-56
2024/04/15 05:26:42;;;;;;;2.38;1.50;;;;;;;22.27;36.62;100135.31;4864149;26;22604;-57
2024/04/15 05:28:52;;;;;;;1.30;1.20;;;;;;;22.27;36.66;100133.28;4868732;26;19999;-57
2024/04/15 05:31:03;;;;;;;2.03;1.30;;;;;;;22.27;36.61;100132.44;4867282;26;20460;-57
2024/04/15 05:33:13;;;;;;;1.55;1.20;;;;;;;22.26;36.73;100125.91;4868999;26;20444;-56
2024/04/15 05:35:24;;;;;;;1.58;1.20;;;;;;;22.26;36.37;100119.31;4867234;26;20003;-56
2024/04/15 05:37:34;;;;;;;1.77;1.35;;;;;;;22.26;36.46;100114.38;4867079;26;20456;-57
2024/04/15 05:39:45;;;;;;;2.13;1.60;;;;;;;22.26;36.62;100119.31;4866447;26;20349;-56
2024/04/15 05:41:55;;;;;;;2.58;1.40;;;;;;;22.25;36.85;100112.72;4866741;26;20008;-57
2024/04/15 05:44:06;;;;;;;1.67;1.48;;;;;;;22.25;36.97;100101.22;4866453;26;20051;-57
2024/04/15 05:46:17;;;;;;;2.00;1.50;;;;;;;22.25;36.93;100097.53;4869091;26;20012;-58
2024/04/15 05:48:27;;;;;;;2.50;1.65;;;;;;;22.25;37.00;100091.78;4868229;26;20022;-56
2024/04/15 05:50:39;;;;;;;2.97;1.67;;;;;;;22.24;36.53;100090.94;4865530;26;20003;-58
2024/04/15 05:52:49;;;;;;;2.20;1.75;;;;;;;22.23;36.72;100088.47;4867346;26;20521;-56
2024/04/15 05:54:59;;;;;;;2.90;1.50;;;;;;;22.23;36.95;100087.22;4868062;26;20018;-57
2024/04/15 05:57:10;;;;;;;3.88;1.80;;;;;;;22.25;36.52;100080.28;4867998;26;20430;-57
2024/04/15 05:59:20;;;;;;;2.45;1.58;;;;;;;22.23;36.59;100081.47;4868244;26;20341;-56
2024/04/15 06:01:31;;;;;;;1.77;1.40;;;;;;;22.23;36.39;100069.19;4868268;26;20012;-58
2024/04/15 06:03:41;;;;;;;1.60;1.35;;;;;;;22.23;36.09;100068.34;4865685;26;20018;-57
2024/04/15 06:05:51;;;;;;;2.53;1.50;;;;;;;22.23;35.92;100068.34;4857571;26;20451;-57
2024/04/15 06:08:02;;;;;;;2.45;1.70;;;;;;;22.21;35.92;100066.66;4861440;26;20070;-54
2024/04/15 06:10:12;;;;;;;2.85;1.90;;;;;;;22.23;35.61;100056.84;4867546;26;20056;-57
2024/04/15 06:12:23;;;;;;;1.98;1.48;;;;;;;22.21;35.88;100058.03;4868241;26;20105;-57
2024/04/15 06:14:33;;;;;;;1.75;1.48;;;;;;;22.21;35.37;100052.28;4865394;26;20011;-56
2024/04/15 06:16:44;;;;;;;1.85;1.30;;;;;;;22.22;35.28;100050.25;4867512;26;20359;-57
2024/04/15 06:18:54;;;;;;;1.95;1.30;;;;;;;22.21;35.06;100049.41;4869540;26;20022;-57
2024/04/15 06:21:05;;;;;;;1.23;0.80;;;;;;;22.22;36.94;100058.88;4869631;26;20026;-58
2024/04/15 06:23:15;;;;;;;1.35;0.93;;;;;;;22.22;38.71;100056.00;4864941;26;20016;-58
2024/04/15 06:25:25;;;;;;;1.15;0.70;;;;;;;22.23;40.10;100058.47;4866306;26;20024;-57
2024/04/15 06:27:36;;;;;;;1.65;0.80;;;;;;;22.23;40.27;100051.09;4865552;26;20019;-56
2024/04/15 06:29:48;;;;;;;2.22;1.00;;;;;;;22.24;40.40;100056.44;4869321;26;20012;-58
2024/04/15 06:32:13;;;;;;;1.20;0.88;;;;;;;22.21;38.82;100055.16;4865606;26;20015;-57
2024/04/15 06:34:26;;;;;;;1.17;0.80;;;;;;;22.23;38.64;100058.47;4870525;26;20023;-54
2024/04/15 06:36:37;;;;;;;1.42;0.80;;;;;;;22.24;39.46;100053.56;4868248;26;20016;-57
2024/04/15 06:38:47;;;;;;;1.23;0.90;;;;;;;22.23;39.77;100048.22;4866046;26;20011;-57
2024/04/15 06:40:59;;;;;;;1.83;0.85;;;;;;;22.23;39.32;100046.19;4867371;26;20007;-57
2024/04/15 06:43:10;;;;;;;2.40;1.17;;;;;;;22.23;38.47;100042.47;4868410;26;20012;-57
2024/04/15 06:45:21;;;;;;;1.45;0.90;;;;;;;22.23;37.46;100039.59;4869577;26;20690;-54
2024/04/15 06:47:31;;;;;;;1.20;0.93;;;;;;;22.23;38.75;100040.44;4865530;26;20026;-56
2024/04/15 06:49:42;;;;;;;1.15;0.70;;;;;;;22.22;38.75;100038.75;4864833;26;20363;-57
2024/04/15 06:51:52;;;;;;;1.45;0.88;;;;;;;22.21;37.34;100026.41;4867916;26;20019;-57
2024/04/15 06:54:03;;;;;;;1.35;1.00;;;;;;;22.21;38.42;100029.28;4867987;26;20007;-57
2024/04/15 06:56:13;;;;;;;1.70;1.00;;;;;;;22.22;38.21;100021.50;4868645;26;20039;-58
2024/04/15 06:58:23;;;;;;;1.10;0.70;;;;;;;22.21;38.43;100014.91;4867183;26;20040;-57
2024/04/15 07:00:34;;;;;;;1.00;0.90;;;;;;;22.21;38.36;100009.16;4870441;26;20450;-57
2024/04/15 07:02:44;;;;;;;1.65;0.90;;;;;;;22.21;38.66;100003.41;4867015;26;20011;-57
2024/04/15 07:04:55;;;;;;;1.52;0.95;;;;;;;22.21;38.70;100009.16;4864474;26;20087;-56
2024/04/15 07:07:14;;;;;;;1.90;1.30;;;;;;;22.20;37.13;100007.53;4883496;26;20022;-57
2024/04/15 07:09:25;;;;;;;2.53;1.30;;;;;;;22.21;38.06;100012.03;4865633;26;20084;-57
2024/04/15 07:11:36;;;;;;;1.55;1.00;;;;;;;22.20;37.41;100006.69;4867130;26;20003;-57
2024/04/15 07:13:47;;;;;;;1.35;1.10;;;;;;;22.20;37.86;100010.41;4867958;26;20411;-57
2024/04/15 07:15:57;;;;;;;2.13;1.23;;;;;;;22.20;36.22;100003.81;4867767;26;22603;-57
2024/04/15 07:18:08;;;;;;;1.83;0.90;;;;;;;22.19;37.78;99997.25;4866692;26;20012;-56
2024/04/15 07:20:18;;;;;;;1.85;1.23;;;;;;;22.18;37.47;99989.84;4870793;26;20004;-55
2024/04/15 07:22:30;;;;;;;1.95;1.17;;;;;;;22.18;37.53;99986.97;4866275;26;20135;-58
2024/04/15 07:24:40;;;;;;;3.22;1.30;;;;;;;22.18;36.66;99984.09;4864714;26;20100;-58
2024/04/15 07:26:51;;;;;;;2.47;1.25;;;;;;;22.18;37.58;99989.03;4870021;26;20015;-58
2024/04/15 07:29:13;;;;;;;1.30;1.20;;;;;;;22.18;37.33;99981.22;4866433;26;21148;-57
2024/04/15 07:31:24;;;;;;;2.10;1.17;;;;;;;22.17;37.64;99955.75;4866183;26;20011;-54
2024/04/15 07:33:34;;;;;;;2.22;1.30;;;;;;;22.17;37.41;99959.44;4872534;26;20023;-57
2024/04/15 07:35:52;;;;;;;2.17;1.45;;;;;;;22.18;36.82;99958.22;4868193;26;20483;-56
2024/04/15 07:38:03;;;;;;;1.15;0.90;;;;;;;22.18;37.92;99961.09;4866895;26;20012;-57
2024/04/15 07:40:13;;;;;;;1.42;1.30;;;;;;;22.18;37.22;99969.72;4867293;26;20483;-55
2024/04/15 07:42:24;;;;;;;1.67;1.15;;;;;;;22.17;36.99;99962.31;4869934;26;20026;-57
2024/04/15 07:44:34;;;;;;;2.72;1.50;;;;;;;22.16;36.81;99954.94;4866079;26;20340;-56
2024/04/15 07:46:44;;;;;;;1.75;1.45;;;;;;;22.17;36.86;99950.81;4866142;26;20671;-57
2024/04/15 07:48:55;;;;;;;2.00;1.40;;;;;;;22.16;37.03;99942.59;4866608;26;20103;-56
2024/04/15 07:51:06;;;;;;;4.28;1.42;;;;;;;22.17;37.22;99944.25;4865428;26;20023;-57
2024/04/15 07:53:16;;;;;;;2.35;1.42;;;;;;;22.17;36.94;99939.31;4868600;26;20047;-56
2024/04/15 07:55:26;;;;;;;3.15;1.23;;;;;;;22.18;36.40;99935.22;4866703;26;20007;-55
2024/04/15 07:57:37;;;;;;;1.92;1.30;;;;;;;22.18;36.28;99940.97;4866051;26;20016;-57
2024/04/15 07:59:47;;;;;;;1.58;1.30;;;;;;;22.19;36.31;99948.41;4867875;26;20469;-58
2024/04/15 08:01:58;;;;;;;2.50;1.40;;;;;;;22.19;35.92;99934.03;4868811;26;20519;-58
2024/04/15 08:04:08;;;;;;;1.73;1.10;;;;;;;22.20;36.93;99931.94;4869004;26;20023;-57
2024/04/15 08:06:19;;;;;;;2.13;1.10;;;;;;;22.20;36.41;99924.16;4864263;26;20025;-56
2024/04/15 08:08:29;;;;;;;2.65;1.45;;;;;;;22.18;36.33;99932.34;4864876;26;20016;-56
2024/04/15 08:10:39;;;;;;;1.55;1.10;;;;;;;22.21;35.70;99927.88;4865231;26;20007;-58
2024/04/15 08:12:50;;;;;;;2.42;1.20;;;;;;;22.24;35.45;99921.34;4865887;26;20447;-57
2024/04/15 08:15:00;;;;;;;2.50;1.20;;;;;;;22.24;34.38;99927.09;4867973;26;20026;-57
2024/04/15 08:17:10;;;;;;;1.10;1.00;;;;;;;22.26;34.37;99929.56;4867166;26;20023;-58
2024/04/15 08:19:21;;;;;;;1.40;1.10;;;;;;;22.26;34.28;99935.31;4865410;26;20433;-57
2024/04/15 08:21:32;;;;;;;3.53;1.17;;;;;;;22.28;34.68;99930.00;4865401;26;20087;-57
2024/04/15 08:23:42;;;;;;;1.83;1.10;;;;;;;22.27;34.46;99932.03;4867775;26;20015;-57
2024/04/15 08:25:54;;;;;;;1.40;1.20;;;;;;;22.27;35.38;99931.19;4867021;26;20028;-62
2024/04/15 08:28:04;;;;;;;1.90;1.25;;;;;;;22.28;34.17;99922.19;4867079;26;20016;-63
2024/04/15 08:30:19;;;;;;;1.73;1.20;;;;;;;22.29;34.87;99920.97;4866165;26;20023;-60
2024/04/15 08:32:29;;;;;;;2.38;1.30;;;;;;;22.31;34.60;99914.84;4867040;26;20610;-58
2024/04/15 08:34:40;;;;;;;1.95;1.30;;;;;;;22.31;34.77;99914.84;4865541;26;20015;-57
2024/04/15 08:36:51;;;;;;;2.97;1.33;;;;;;;22.31;34.71;99903.34;4863981;26;20015;-57
2024/04/15 08:39:01;;;;;;;1.70;1.00;;;;;;;22.31;34.66;99897.59;4866743;26;20012;-56
2024/04/15 08:41:19;;;;;;;2.15;1.10;;;;;;;22.31;34.24;99895.50;4867599;26;20019;-57
2024/04/15 08:43:30;;;;;;;3.95;1.10;;;;;;;22.30;34.15;99891.00;4866952;26;20008;-58
2024/04/15 08:45:43;;;;;;;1.67;1.00;;;;;;;22.31;34.00;99888.97;4865701;26;20011;-57
2024/04/15 08:47:56;;;;;;;2.05;1.00;;;;;;;22.30;33.79;99895.91;4865347;26;20101;-56
2024/04/15 08:50:08;;;;;;;1.02;0.90;;;;;;;22.30;33.59;99890.16;4893885;26;20091;-58
2024/04/15 08:52:19;;;;;;;1.05;0.90;;;;;;;22.29;33.99;99879.91;4867788;26;20978;-55
2024/04/15 08:54:29;;;;;;;1.58;1.10;;;;;;;22.29;33.58;99892.22;4862625;26;20016;-57
2024/04/15 08:56:43;;;;;;;1.52;0.88;;;;;;;22.30;34.31;99884.41;4865985;26;20693;-57
2024/04/15 08:58:56;;;;;;;1.38;0.90;;;;;;;22.29;33.65;99882.78;4867410;26;20011;-57
2024/04/15 09:01:08;;;;;;;1.95;1.00;;;;;;;22.29;33.59;99880.72;4867076;26;20015;-58
2024/04/15 09:03:20;;;;;;;1.30;0.90;;;;;;;22.29;33.64;99874.16;4866040;26;21887;-57
2024/04/15 09:05:31;;;;;;;1.25;0.80;;;;;;;22.29;34.71;99872.09;4870497;26;20574;-57
2024/04/15 09:07:41;;;;;;;1.40;1.10;;;;;;;22.28;34.33;99858.13;4868496;26;20022;-54
2024/04/15 09:09:51;;;;;;;1.88;1.00;;;;;;;22.29;33.95;99856.91;4866406;26;20023;-57
2024/04/15 09:12:02;;;;;;;1.33;0.90;;;;;;;22.28;34.22;99852.38;4866646;26;20350;-57
2024/04/15 09:14:12;;;;;;;1.40;1.08;;;;;;;22.27;33.87;99840.03;4870407;26;20480;-57
2024/04/15 09:16:23;;;;;;;1.90;0.80;;;;;;;22.28;34.40;99835.13;4865425;26;20354;-56
2024/04/15 09:18:33;;;;;;;1.63;1.00;;;;;;;22.26;33.87;99826.91;4868785;26;20500;-58
2024/04/15 09:20:47;;;;;;;1.15;0.80;;;;;;;22.27;34.42;99822.78;4871780;26;20370;-57
2024/04/15 09:23:02;;;;;;;1.85;0.80;;;;;;;22.28;34.44;99820.75;4869486;26;20011;-56
2024/04/15 09:25:13;;;;;;;1.38;0.80;;;;;;;22.28;34.10;99817.88;4866644;26;20140;-56
2024/04/15 09:27:26;;;;;;;1.95;0.93;;;;;;;22.27;34.14;99799.78;4867710;26;20016;-57
2024/04/15 09:29:36;;;;;;;1.67;0.90;;;;;;;22.27;33.98;99799.78;4869450;26;20023;-57
2024/04/15 09:31:47;;;;;;;1.63;1.10;;;;;;;22.26;33.52;99795.28;4867690;26;20027;-58
2024/04/15 09:33:58;;;;;;;2.10;0.90;;;;;;;22.26;33.30;99792.41;4869012;26;20025;-58
2024/04/15 09:36:14;;;;;;;2.03;0.80;;;;;;;22.28;34.02;99771.88;4867737;26;20023;-56
2024/04/15 09:38:26;;;;;;;0.75;0.70;;;;;;;22.28;34.12;99778.44;4867252;26;21570;-55
2024/04/15 09:40:41;;;;;;;1.67;0.80;;;;;;;22.28;33.45;99771.88;4869620;26;20074;-57
2024/04/15 09:42:56;;;;;;;2.05;0.90;;;;;;;22.29;33.58;99759.97;4867993;26;20066;-58
2024/04/15 09:45:09;;;;;;;1.55;0.90;;;;;;;22.29;33.60;99762.03;4867729;26;20011;-57
2024/04/15 09:47:19;;;;;;;4.10;1.77;;;;;;;22.31;33.69;99759.59;4866042;26;20026;-57
2024/04/15 09:49:30;;;;;;;1.42;0.98;;;;;;;22.30;32.50;99755.03;4868682;26;20026;-57
2024/04/15 09:51:41;;;;;;;2.40;1.00;;;;;;;22.30;32.80;99755.03;4870720;26;21402;-57
2024/04/15 09:53:53;;;;;;;1.10;0.80;;;;;;;22.30;32.72;99746.41;4868644;26;20066;-57
2024/04/15 09:56:12;;;;;;;1.27;0.70;;;;;;;22.28;32.43;99751.75;4866830;26;21603;-57
2024/04/15 09:58:26;;;;;;;1.65;0.90;;;;;;;22.30;32.77;99746.41;4854380;26;20102;-58
2024/04/15 10:00:42;;;;;;;1.55;0.82;;;;;;;22.30;32.01;99740.66;4866462;26;20015;-58
2024/04/15 10:03:07;;;;;;;1.58;0.70;;;;;;;22.29;31.97;99734.13;4883638;26;20595;-54
2024/04/15 10:05:20;;;;;;;1.75;0.80;;;;;;;22.31;32.82;99720.13;4867912;26;20075;-58
2024/04/15 10:07:31;;;;;;;1.83;0.82;;;;;;;22.30;32.31;99712.75;4868659;26;20011;-56
2024/04/15 10:09:42;;;;;;;1.33;0.80;;;;;;;22.31;31.82;99710.72;4867493;26;20042;-57
2024/04/15 10:11:52;;;;;;;1.40;0.80;;;;;;;22.32;32.66;99703.72;4865095;26;20478;-57